createdAt,value
2023-04-02T00:00:34.042Z,6.88
2023-04-02T00:03:04.988Z,6.87
2023-04-02T00:05:51.626Z,6.85
2023-04-02T00:08:38.799Z,6.85
2023-04-02T00:11:07.558Z,6.82
2023-04-02T00:13:39.200Z,6.80
2023-04-02T00:16:11.583Z,6.79
2023-04-02T00:18:45.948Z,6.78
2023-04-02T00:21:34.750Z,6.76
2023-04-02T00:24:10.472Z,6.75
2023-04-02T00:26:45.363Z,6.73
2023-04-02T00:29:16.743Z,6.73
2023-04-02T00:31:50.288Z,6.74
2023-04-02T00:34:33.824Z,6.70
2023-04-02T00:37:01.765Z,6.70
2023-04-02T00:39:41.507Z,6.71
2023-04-02T00:42:13.049Z,6.68
2023-04-02T00:44:43.762Z,6.68
2023-04-02T00:47:30.642Z,6.68
2023-04-02T00:50:05.959Z,6.65
2023-04-02T00:52:35.658Z,6.62
2023-04-02T00:55:14.800Z,6.60
2023-04-02T00:57:45.591Z,6.59
2023-04-02T01:00:18.140Z,6.56
2023-04-02T01:03:16.741Z,6.54
2023-04-02T01:05:48.311Z,6.53
2023-04-02T01:08:48.297Z,6.51
2023-04-02T01:11:31.335Z,6.49
2023-04-02T01:14:24.006Z,6.48
2023-04-02T01:16:57.323Z,6.47
2023-04-02T01:20:12.628Z,6.46
2023-04-02T01:23:08.037Z,6.44
2023-04-02T01:25:54.750Z,6.42
2023-04-02T01:28:52.504Z,6.41
2023-04-02T01:31:19.704Z,6.39
2023-04-02T01:33:47.701Z,6.37
2023-04-02T01:36:35.011Z,6.35
2023-04-02T01:39:41.877Z,6.33
2023-04-02T01:42:25.714Z,6.33
2023-04-02T01:45:00.694Z,6.32
2023-04-02T01:47:29.635Z,6.30
2023-04-02T01:50:19.383Z,6.29
2023-04-02T01:52:54.099Z,6.28
2023-04-02T01:55:32.284Z,6.26
2023-04-02T01:58:01.881Z,6.25
2023-04-02T02:00:30.670Z,6.23
2023-04-02T02:03:01.031Z,6.22
2023-04-02T02:05:29.513Z,6.21
2023-04-02T02:07:58.296Z,6.20
2023-04-02T02:10:34.604Z,6.19
2023-04-02T02:13:01.814Z,6.17
2023-04-02T02:15:31.779Z,6.14
2023-04-02T02:18:03.373Z,6.12
2023-04-02T02:20:32.470Z,6.10
2023-04-02T02:23:01.669Z,6.08
2023-04-02T02:25:33.331Z,6.05
2023-04-02T02:28:26.386Z,5.99
2023-04-02T02:31:19.452Z,5.96
2023-04-02T02:33:51.095Z,5.92
2023-04-02T02:36:33.758Z,5.90
2023-04-02T02:39:25.497Z,5.84
2023-04-02T02:42:02.742Z,5.81
2023-04-02T02:44:35.028Z,5.79
2023-04-02T02:47:08.759Z,5.80
2023-04-02T02:49:42.052Z,5.77
2023-04-02T02:52:08.566Z,5.72
2023-04-02T02:54:40.541Z,5.71
2023-04-02T02:57:13.947Z,5.70
2023-04-02T02:59:43.189Z,5.67
2023-04-02T03:02:09.963Z,5.65
2023-04-02T03:04:38.238Z,5.64
2023-04-02T03:07:06.543Z,5.60
2023-04-02T03:09:45.325Z,5.58
2023-04-02T03:12:28.812Z,5.58
2023-04-02T03:15:27.393Z,5.56
2023-04-02T03:18:11.788Z,5.57
2023-04-02T03:20:48.542Z,5.56
2023-04-02T03:23:28.809Z,5.52
2023-04-02T03:26:17.325Z,5.48
2023-04-02T03:28:52.616Z,5.48
2023-04-02T03:31:27.566Z,5.46
2023-04-02T03:34:04.520Z,5.43
2023-04-02T03:36:38.384Z,5.41
2023-04-02T03:39:17.038Z,5.40
2023-04-02T03:42:01.864Z,5.38
2023-04-02T03:44:46.375Z,5.33
2023-04-02T03:47:25.130Z,5.31
2023-04-02T03:50:04.983Z,5.30
2023-04-02T03:52:36.953Z,5.28
2023-04-02T03:55:16.208Z,5.30
2023-04-02T03:58:01.746Z,5.28
2023-04-02T04:01:00.920Z,5.28
2023-04-02T04:03:43.458Z,5.27
2023-04-02T04:06:32.371Z,5.25
2023-04-02T04:09:08.892Z,5.25
2023-04-02T04:11:45.781Z,5.23
2023-04-02T04:14:16.796Z,5.22
2023-04-02T04:16:57.797Z,5.20
2023-04-02T04:19:35.640Z,5.20
2023-04-02T04:22:18.899Z,5.12
2023-04-02T04:24:48.987Z,5.09
2023-04-02T04:27:33.750Z,5.07
2023-04-02T04:33:02.236Z,5.03
2023-04-02T04:35:34.556Z,5.00
2023-04-02T04:38:16.664Z,4.96
2023-04-02T04:40:54.130Z,4.93
2023-04-02T04:43:47.391Z,4.89
2023-04-02T04:46:25.697Z,4.84
2023-04-02T04:49:10.611Z,4.82
2023-04-02T04:51:45.487Z,4.81
2023-04-02T04:54:14.817Z,4.82
2023-04-02T04:56:48.624Z,4.83
2023-04-02T04:59:18.624Z,4.80
2023-04-02T05:02:12.896Z,4.78
2023-04-02T05:04:42.982Z,4.76
2023-04-02T05:07:17.726Z,4.68
2023-04-02T05:10:01.421Z,4.57
2023-04-02T05:12:37.854Z,4.49
2023-04-02T05:15:16.732Z,4.38
2023-04-02T05:17:55.524Z,4.31
2023-04-02T05:20:34.186Z,4.24
2023-04-02T05:23:25.813Z,4.16
2023-04-02T05:26:15.695Z,4.12
2023-04-02T05:29:10.696Z,4.10
2023-04-02T05:31:50.843Z,4.09
2023-04-02T05:34:27.720Z,4.04
2023-04-02T05:36:55.679Z,3.98
2023-04-02T05:39:24.721Z,3.91
2023-04-02T05:42:03.878Z,3.89
2023-04-02T05:44:37.298Z,3.82
2023-04-02T05:47:29.308Z,3.78
2023-04-02T05:50:05.643Z,3.72
2023-04-02T05:52:39.620Z,3.66
2023-04-02T05:55:15.198Z,3.62
2023-04-02T05:58:13.510Z,3.60
2023-04-02T06:00:53.901Z,3.57
2023-04-02T06:03:38.832Z,3.52
2023-04-02T06:06:18.523Z,3.51
2023-04-02T06:08:57.703Z,3.44
2023-04-02T06:11:33.082Z,3.44
2023-04-02T06:14:00.375Z,3.45
2023-04-02T06:16:30.826Z,3.46
2023-04-02T06:18:58.398Z,3.48
2023-04-02T06:21:25.978Z,3.46
2023-04-02T06:23:56.993Z,3.48
2023-04-02T06:26:44.855Z,3.48
2023-04-02T06:29:27.088Z,3.51
2023-04-02T06:32:01.301Z,3.53
2023-04-02T06:34:30.827Z,3.55
2023-04-02T06:37:04.833Z,3.56
2023-04-02T06:39:31.782Z,3.57
2023-04-02T06:42:04.018Z,3.57
2023-04-02T06:44:37.950Z,3.58
2023-04-02T06:47:17.370Z,3.61
2023-04-02T06:50:14.014Z,3.62
2023-04-02T06:52:48.975Z,3.64
2023-04-02T06:55:40.169Z,3.67
2023-04-02T06:58:06.737Z,3.70
2023-04-02T07:00:39.873Z,3.72
2023-04-02T07:03:14.550Z,3.73
2023-04-02T07:05:42.980Z,3.73
2023-04-02T07:08:09.781Z,3.75
2023-04-02T07:10:37.048Z,3.78
2023-04-02T07:13:04.238Z,3.74
2023-04-02T07:15:30.984Z,3.74
2023-04-02T07:17:59.188Z,3.78
2023-04-02T07:20:34.486Z,3.79
2023-04-02T07:23:01.315Z,3.77
2023-04-02T07:25:27.926Z,3.77
2023-04-02T07:27:55.770Z,3.81
2023-04-02T07:30:23.136Z,3.79
2023-04-02T07:32:49.733Z,3.77
2023-04-02T07:35:16.494Z,3.75
2023-04-02T07:37:43.004Z,3.75
2023-04-02T07:40:18.612Z,3.77
2023-04-02T07:42:45.629Z,3.79
2023-04-02T07:45:13.041Z,3.81
2023-04-02T07:47:40.086Z,3.82
2023-04-02T07:50:08.215Z,3.83
2023-04-02T07:52:40.536Z,3.87
2023-04-02T07:55:08.054Z,3.89
2023-04-02T07:57:42.644Z,3.88
2023-04-02T08:00:11.937Z,3.88
2023-04-02T08:02:38.466Z,3.85
2023-04-02T08:05:05.490Z,3.88
2023-04-02T08:07:32.349Z,3.89
2023-04-02T08:09:59.144Z,3.91
2023-04-02T08:12:25.905Z,3.91
2023-04-02T08:14:52.428Z,3.92
2023-04-02T08:17:19.023Z,3.94
2023-04-02T08:19:54.805Z,3.91
2023-04-02T08:22:21.945Z,3.94
2023-04-02T08:24:48.537Z,3.97
2023-04-02T08:27:15.315Z,3.98
2023-04-02T08:29:41.897Z,4.00
2023-04-02T08:32:12.654Z,4.00
2023-04-02T08:34:39.219Z,4.01
2023-04-02T08:37:05.837Z,4.05
2023-04-02T08:39:34.131Z,4.08
2023-04-02T08:42:21.862Z,4.09
2023-04-02T08:45:25.034Z,4.13
2023-04-02T08:48:06.379Z,4.16
2023-04-02T08:50:39.918Z,4.19
2023-04-02T08:53:18.057Z,4.15
2023-04-02T08:56:17.951Z,4.16
2023-04-02T08:58:49.801Z,4.20
2023-04-02T09:01:36.173Z,4.19
2023-04-02T09:04:13.390Z,4.25
2023-04-02T09:06:41.837Z,4.24
2023-04-02T09:09:08.977Z,4.26
2023-04-02T09:11:41.827Z,4.25
2023-04-02T09:14:18.950Z,4.27
2023-04-02T09:16:55.651Z,4.28
2023-04-02T09:19:33.680Z,4.27
2023-04-02T09:22:09.014Z,4.31
2023-04-02T09:24:37.704Z,4.38
2023-04-02T09:27:04.719Z,4.40
2023-04-02T09:29:51.771Z,4.49
2023-04-02T09:32:36.708Z,4.54
2023-04-02T09:35:27.293Z,4.56
2023-04-02T09:38:21.778Z,4.62
2023-04-02T09:40:58.357Z,4.63
2023-04-02T09:43:28.321Z,4.64
2023-04-02T09:46:02.383Z,4.72
2023-04-02T09:48:39.489Z,4.83
2023-04-02T09:51:15.352Z,4.91
2023-04-02T09:54:04.834Z,5.03
2023-04-02T09:56:39.769Z,5.30
2023-04-02T09:59:22.805Z,5.47
2023-04-02T10:01:55.719Z,5.79
2023-04-02T10:04:45.449Z,6.18
2023-04-02T10:07:39.841Z,6.81
2023-04-02T10:10:23.952Z,7.32
2023-04-02T10:13:06.664Z,7.86
2023-04-02T10:15:44.355Z,8.38
2023-04-02T10:18:22.721Z,8.70
2023-04-02T10:20:54.333Z,8.87
2023-04-02T10:23:26.954Z,9.24
2023-04-02T10:26:16.055Z,9.47
2023-04-02T10:29:08.105Z,9.71
2023-04-02T10:31:58.440Z,9.93
2023-04-02T10:34:36.875Z,10.11
2023-04-02T10:37:34.608Z,10.34
2023-04-02T10:40:17.832Z,10.55
2023-04-02T10:43:24.741Z,10.84
2023-04-02T10:45:58.457Z,11.08
2023-04-02T10:48:43.739Z,11.20
2023-04-02T10:51:25.769Z,11.25
2023-04-02T10:54:02.670Z,11.36
2023-04-02T10:56:38.187Z,11.51
2023-04-02T10:59:23.079Z,11.28
2023-04-02T11:01:53.565Z,11.25
2023-04-02T11:04:28.496Z,11.14
2023-04-02T11:07:19.000Z,11.14
2023-04-02T11:09:52.206Z,11.06
2023-04-02T11:12:36.574Z,11.00
2023-04-02T11:15:18.275Z,11.00
2023-04-02T11:17:46.496Z,10.89
2023-04-02T11:21:01.575Z,10.96
2023-04-02T11:23:31.582Z,11.14
2023-04-02T11:26:37.361Z,11.14
2023-04-02T11:29:23.245Z,11.17
2023-04-02T11:32:11.412Z,10.87
2023-04-02T11:34:40.867Z,10.78
2023-04-02T11:37:11.190Z,10.68
2023-04-02T11:39:58.209Z,10.53
2023-04-02T11:42:31.217Z,10.55
2023-04-02T11:45:23.211Z,10.53
2023-04-02T11:48:02.116Z,10.43
2023-04-02T11:50:34.352Z,10.40
2023-04-02T11:53:14.742Z,10.50
2023-04-02T11:55:42.721Z,10.37
2023-04-02T11:58:40.152Z,10.33
2023-04-02T12:01:11.705Z,10.36
2023-04-02T12:04:00.036Z,10.33
2023-04-02T12:07:00.256Z,10.29
2023-04-02T12:09:44.670Z,10.33
2023-04-02T12:12:23.286Z,10.32
2023-04-02T12:15:00.528Z,10.25
2023-04-02T12:17:35.466Z,10.19
2023-04-02T12:20:20.569Z,10.06
2023-04-02T12:22:53.830Z,9.98
2023-04-02T12:25:40.805Z,10.04
2023-04-02T12:28:10.431Z,9.93
2023-04-02T12:30:38.775Z,9.86
2023-04-02T12:33:16.670Z,9.92
2023-04-02T12:35:45.284Z,9.81
2023-04-02T12:38:34.272Z,9.78
2023-04-02T12:41:16.570Z,9.78
2023-04-02T12:43:43.077Z,9.74
2023-04-02T12:46:09.910Z,9.83
2023-04-02T12:48:39.177Z,9.75
2023-04-02T12:51:06.444Z,9.71
2023-04-02T12:53:39.138Z,9.73
2023-04-02T12:56:08.258Z,9.65
2023-04-02T12:58:41.418Z,9.62
2023-04-02T13:01:11.126Z,9.56
2023-04-02T13:03:37.906Z,9.46
2023-04-02T13:06:21.771Z,9.43
2023-04-02T13:08:48.804Z,9.49
2023-04-02T13:11:15.485Z,9.43
2023-04-02T13:13:45.999Z,9.45
2023-04-02T13:16:12.484Z,9.44
2023-04-02T13:18:39.360Z,9.48
2023-04-02T13:21:07.291Z,9.56
2023-04-02T13:23:37.028Z,9.62
2023-04-02T13:26:18.386Z,9.62
2023-04-02T13:29:01.304Z,9.60
2023-04-02T13:31:32.508Z,9.58
2023-04-02T13:33:59.325Z,9.58
2023-04-02T13:36:28.259Z,9.55
2023-04-02T13:38:55.661Z,9.53
2023-04-02T13:41:29.080Z,9.59
2023-04-02T13:44:00.054Z,9.55
2023-04-02T13:46:30.189Z,9.53
2023-04-02T13:48:58.472Z,9.60
2023-04-02T13:51:37.172Z,9.64
2023-04-02T13:54:10.552Z,9.57
2023-04-02T13:56:37.431Z,9.61
2023-04-02T13:59:05.516Z,9.59
2023-04-02T14:01:32.514Z,9.59
2023-04-02T14:03:59.271Z,9.58
2023-04-02T14:07:09.600Z,9.58
2023-04-02T14:09:57.044Z,9.61
2023-04-02T14:12:45.996Z,9.63
2023-04-02T14:15:34.208Z,9.67
2023-04-02T14:18:15.352Z,9.69
2023-04-02T14:20:41.856Z,9.74
2023-04-02T14:23:14.174Z,9.71
2023-04-02T14:26:06.885Z,9.71
2023-04-02T14:28:44.189Z,9.72
2023-04-02T14:31:34.668Z,9.74
2023-04-02T14:34:28.624Z,9.78
2023-04-02T14:36:56.482Z,9.81
2023-04-02T14:39:41.549Z,9.79
2023-04-02T14:42:22.154Z,9.78
2023-04-02T14:45:04.931Z,9.82
2023-04-02T14:47:41.232Z,9.82
2023-04-02T14:50:22.253Z,9.75
2023-04-02T14:52:56.630Z,9.80
2023-04-02T14:55:37.969Z,9.79
2023-04-02T14:58:17.013Z,9.80
2023-04-02T15:00:51.547Z,9.79
2023-04-02T15:03:45.968Z,9.79
2023-04-02T15:06:21.345Z,9.82
2023-04-02T15:09:08.212Z,9.82
2023-04-02T15:11:48.674Z,9.82
2023-04-02T15:14:36.177Z,9.85
2023-04-02T15:17:03.022Z,9.85
2023-04-02T15:19:29.856Z,9.83
2023-04-02T15:22:06.989Z,9.84
2023-04-02T15:24:45.040Z,9.84
2023-04-02T15:27:23.941Z,9.81
2023-04-02T15:30:12.410Z,9.85
2023-04-02T15:32:41.737Z,9.89
2023-04-02T15:35:08.380Z,9.88
2023-04-02T15:37:52.861Z,9.92
2023-04-02T15:40:35.240Z,9.87
2023-04-02T15:43:18.171Z,9.88
2023-04-02T15:46:32.798Z,9.85
2023-04-02T15:49:23.525Z,9.81
2023-04-02T15:52:05.752Z,9.84
2023-04-02T15:55:04.695Z,9.83
2023-04-02T15:57:43.240Z,9.86
2023-04-02T16:00:30.890Z,9.91
2023-04-02T16:03:19.164Z,9.87
2023-04-02T16:06:39.097Z,9.89
2023-04-02T16:09:08.332Z,9.92
2023-04-02T16:11:34.919Z,9.94
2023-04-02T16:14:16.211Z,9.92
2023-04-02T16:16:46.555Z,9.90
2023-04-02T16:19:40.005Z,9.89
2023-04-02T16:22:29.056Z,9.87
2023-04-02T16:25:13.635Z,9.86
2023-04-02T16:27:45.486Z,9.83
2023-04-02T16:30:33.815Z,9.85
2023-04-02T16:33:26.603Z,9.87
2023-04-02T16:36:21.487Z,9.84
2023-04-02T16:38:58.677Z,9.80
2023-04-02T16:42:02.083Z,9.83
2023-04-02T16:44:52.069Z,9.83
2023-04-02T16:47:24.346Z,9.82
2023-04-02T16:50:08.843Z,9.81
2023-04-02T16:53:07.652Z,9.77
2023-04-02T16:55:43.258Z,9.78
2023-04-02T16:58:31.359Z,9.76
2023-04-02T17:01:47.303Z,9.70
2023-04-02T17:04:26.666Z,9.63
2023-04-02T17:06:56.116Z,9.58
2023-04-02T17:09:48.827Z,9.55
2023-04-02T17:12:28.562Z,9.47
2023-04-02T17:15:09.335Z,9.47
2023-04-02T17:17:41.611Z,9.40
2023-04-02T17:20:23.055Z,9.35
2023-04-02T17:22:50.904Z,9.32
2023-04-02T17:25:36.743Z,9.26
2023-04-02T17:28:12.565Z,9.24
2023-04-02T17:30:48.702Z,9.20
2023-04-02T17:33:17.937Z,9.14
2023-04-02T17:36:16.892Z,9.14
2023-04-02T17:39:14.426Z,9.06
2023-04-02T17:41:44.015Z,9.02
2023-04-02T17:44:16.467Z,9.00
2023-04-02T17:46:55.144Z,8.95
2023-04-02T17:50:03.220Z,8.91
2023-04-02T17:52:48.548Z,8.84
2023-04-02T17:55:21.995Z,8.81
2023-04-02T17:58:09.626Z,8.78
2023-04-02T18:00:54.535Z,8.72
2023-04-02T18:03:36.463Z,8.69
2023-04-02T18:06:24.865Z,8.63
2023-04-02T18:08:54.120Z,8.56
2023-04-02T18:11:44.668Z,8.52
2023-04-02T18:14:43.699Z,8.46
2023-04-02T18:17:19.331Z,8.43
2023-04-02T18:20:27.714Z,8.38
2023-04-02T18:23:12.281Z,8.32
2023-04-02T18:26:01.682Z,8.28
2023-04-02T18:28:40.280Z,8.23
2023-04-02T18:31:30.399Z,8.18
2023-04-02T18:34:22.140Z,8.15
2023-04-02T18:37:27.373Z,8.07
2023-04-02T18:39:56.506Z,8.02
2023-04-02T18:42:41.506Z,8.00
2023-04-02T18:45:18.357Z,7.96
2023-04-02T18:48:12.049Z,7.90
2023-04-02T18:50:45.864Z,7.88
2023-04-02T18:53:14.171Z,7.84
2023-04-02T18:55:51.670Z,7.81
2023-04-02T18:58:26.816Z,7.77
2023-04-02T19:00:53.956Z,7.73
2023-04-02T19:03:46.415Z,7.67
2023-04-02T19:06:40.874Z,7.64
2023-04-02T19:09:16.665Z,7.57
2023-04-02T19:11:43.235Z,7.56
2023-04-02T19:14:16.982Z,7.53
2023-04-02T19:17:07.535Z,7.49
2023-04-02T19:19:51.456Z,7.43
2023-04-02T19:22:43.557Z,7.42
2023-04-02T19:25:22.634Z,7.40
2023-04-02T19:28:04.458Z,7.37
2023-04-02T19:30:47.219Z,7.35
2023-04-02T19:33:19.683Z,7.29
2023-04-02T19:36:15.757Z,7.24
2023-04-02T19:39:00.522Z,7.22
2023-04-02T19:41:43.626Z,7.17
2023-04-02T19:44:13.383Z,7.11
2023-04-02T19:46:40.794Z,7.07
2023-04-02T19:49:22.851Z,7.01
2023-04-02T19:51:50.785Z,6.96
2023-04-02T19:54:18.210Z,6.96
2023-04-02T19:56:45.381Z,6.92
2023-04-02T20:01:42.802Z,6.90
2023-04-02T20:04:09.359Z,6.89
2023-04-02T20:06:36.394Z,6.86
2023-04-02T20:09:03.334Z,6.84
2023-04-02T20:11:30.776Z,6.79
2023-04-02T20:13:57.372Z,6.78
2023-04-02T20:16:23.984Z,6.77
2023-04-02T20:18:50.852Z,6.70
2023-04-02T20:21:17.475Z,6.66
2023-04-02T20:23:44.221Z,6.65
2023-04-02T20:26:11.571Z,6.62
2023-04-02T20:28:38.132Z,6.56
2023-04-02T20:31:08.585Z,6.55
2023-04-02T20:33:36.052Z,6.50
2023-04-02T20:36:06.364Z,6.48
2023-04-02T20:38:33.310Z,6.42
2023-04-02T20:41:01.025Z,6.38
2023-04-02T20:43:28.351Z,6.36
2023-04-02T20:46:04.507Z,6.33
2023-04-02T20:48:32.700Z,6.31
2023-04-02T20:51:01.884Z,6.28
2023-04-02T20:53:30.941Z,6.23
2023-04-02T20:56:05.754Z,6.21
2023-04-02T20:58:33.662Z,6.18
2023-04-02T21:01:16.171Z,6.12
2023-04-02T21:03:43.618Z,6.09
2023-04-02T21:06:15.712Z,6.05
2023-04-02T21:08:43.013Z,6.03
2023-04-02T21:11:10.157Z,6.01
2023-04-02T21:13:37.842Z,5.98
2023-04-02T21:16:12.027Z,5.94
2023-04-02T21:18:38.657Z,5.91
2023-04-02T21:21:06.840Z,5.91
2023-04-02T21:23:33.585Z,5.86
2023-04-02T21:26:05.113Z,5.82
2023-04-02T21:28:33.537Z,5.79
2023-04-02T21:31:18.202Z,5.75
2023-04-02T21:33:53.597Z,5.71
2023-04-02T21:36:28.484Z,5.69
2023-04-02T21:38:58.692Z,5.65
2023-04-02T21:41:26.475Z,5.61
2023-04-02T21:43:54.628Z,5.59
2023-04-02T21:46:24.381Z,5.55
2023-04-02T21:48:52.997Z,5.52
2023-04-02T21:51:22.931Z,5.49
2023-04-02T21:53:50.430Z,5.46
2023-04-02T21:56:19.529Z,5.44
2023-04-02T21:58:47.605Z,5.43
2023-04-02T22:01:26.636Z,5.38
2023-04-02T22:03:59.863Z,5.33
2023-04-02T22:06:29.629Z,5.32
2023-04-02T22:08:59.331Z,5.31
2023-04-02T22:11:29.767Z,5.26
2023-04-02T22:13:57.751Z,5.24
2023-04-02T22:16:27.579Z,5.20
2023-04-02T22:18:57.121Z,5.17
2023-04-02T22:21:24.241Z,5.14
2023-04-02T22:23:51.491Z,5.11
2023-04-02T22:26:21.469Z,5.09
2023-04-02T22:28:48.385Z,5.05
2023-04-02T22:31:23.995Z,5.02
2023-04-02T22:33:51.817Z,5.00
2023-04-02T22:36:20.738Z,4.94
2023-04-02T22:38:47.311Z,4.92
2023-04-02T22:41:15.487Z,4.90
2023-04-02T22:43:44.304Z,4.87
2023-04-02T22:46:14.010Z,4.84
2023-04-02T22:48:41.053Z,4.82
2023-04-02T22:51:09.253Z,4.79
2023-04-02T22:53:36.758Z,4.76
2023-04-02T22:56:11.995Z,4.74
2023-04-02T22:58:38.800Z,4.69
2023-04-02T23:01:10.073Z,4.66
2023-04-02T23:03:36.673Z,4.65
2023-04-02T23:06:07.360Z,4.61
2023-04-02T23:08:36.102Z,4.58
2023-04-02T23:11:12.221Z,4.55
2023-04-02T23:13:39.844Z,4.51
2023-04-02T23:16:10.169Z,4.48
2023-04-02T23:18:38.502Z,4.46
2023-04-02T23:21:06.286Z,4.42
2023-04-02T23:23:34.205Z,4.40
2023-04-02T23:26:06.313Z,4.37
2023-04-02T23:28:33.886Z,4.34
2023-04-02T23:31:03.009Z,4.32
2023-04-02T23:33:30.124Z,4.30
2023-04-02T23:35:57.120Z,4.30
2023-04-02T23:38:24.699Z,4.27
2023-04-02T23:40:51.488Z,4.23
2023-04-02T23:43:18.060Z,4.22
2023-04-02T23:45:51.056Z,4.20
2023-04-02T23:48:17.857Z,4.17
2023-04-02T23:50:45.917Z,4.15
2023-04-02T23:53:13.406Z,4.14
2023-04-02T23:55:40.502Z,4.10
2023-04-02T23:58:07.082Z,4.09
